createdAt,value
2018-06-30T00:02:22.668Z,70.20
2018-06-30T00:05:03.137Z,71.60
2018-06-30T00:07:43.947Z,72.20
2018-06-30T00:10:26.905Z,72.30
2018-06-30T00:13:07.172Z,73.00
2018-06-30T00:15:47.387Z,73.40
2018-06-30T00:18:27.635Z,73.70
2018-06-30T00:21:08.320Z,74.70
2018-06-30T00:23:48.548Z,75.20
2018-06-30T00:26:28.928Z,74.90
2018-06-30T00:29:09.489Z,75.40
2018-06-30T00:31:49.828Z,76.20
2018-06-30T00:34:30.123Z,75.40
2018-06-30T00:37:10.350Z,75.80
2018-06-30T00:39:50.777Z,75.80
2018-06-30T00:42:31.188Z,76.80
2018-06-30T00:45:11.512Z,77.20
2018-06-30T00:47:51.826Z,77.40
2018-06-30T00:50:32.392Z,77.50
2018-06-30T00:53:12.728Z,78.20
2018-06-30T00:55:52.972Z,79.70
2018-06-30T00:58:33.316Z,79.80
2018-06-30T01:01:13.423Z,80.70
2018-06-30T01:03:53.764Z,81.00
2018-06-30T01:06:33.819Z,80.60
2018-06-30T01:09:14.322Z,80.50
2018-06-30T01:11:54.581Z,81.50
2018-06-30T01:14:34.983Z,82.10
2018-06-30T01:17:15.263Z,82.20
2018-06-30T01:19:55.605Z,83.00
2018-06-30T01:22:35.823Z,83.80
2018-06-30T01:25:16.212Z,83.80
2018-06-30T01:35:59.898Z,85.30
2018-06-30T01:38:40.141Z,85.80
2018-06-30T01:41:20.445Z,85.90
2018-06-30T01:44:00.654Z,86.70
2018-06-30T01:46:41.017Z,86.30
2018-06-30T01:49:21.236Z,85.70
2018-06-30T01:52:01.508Z,85.10
2018-06-30T01:54:41.617Z,85.70
2018-06-30T01:57:21.921Z,86.70
2018-06-30T02:00:02.431Z,86.20
2018-06-30T02:02:42.677Z,87.10
2018-06-30T02:05:22.820Z,87.10
2018-06-30T02:08:04.142Z,85.90
2018-06-30T02:10:44.508Z,86.00
2018-06-30T02:13:24.567Z,86.50
2018-06-30T02:16:04.910Z,86.90
2018-06-30T02:18:45.106Z,87.30
2018-06-30T02:21:25.291Z,87.60
2018-06-30T02:24:05.664Z,88.10
2018-06-30T02:26:46.096Z,89.30
2018-06-30T02:32:06.486Z,88.70
2018-06-30T02:34:46.820Z,89.60
2018-06-30T02:37:26.930Z,88.70
2018-06-30T02:40:07.273Z,88.60
2018-06-30T02:42:47.517Z,88.80
2018-06-30T02:45:28.003Z,89.60
2018-06-30T02:48:08.222Z,88.80
2018-06-30T02:50:48.588Z,89.20
2018-06-30T02:53:29.014Z,89.10
2018-06-30T02:56:09.253Z,91.00
2018-06-30T02:58:49.700Z,91.60
2018-06-30T03:01:29.989Z,92.20
2018-06-30T03:04:10.455Z,92.80
2018-06-30T03:06:50.744Z,93.00
2018-06-30T03:09:31.655Z,93.30
2018-06-30T03:12:12.231Z,94.10
2018-06-30T03:14:52.576Z,95.40
2018-06-30T03:17:33.051Z,95.60
2018-06-30T03:20:13.299Z,95.60
2018-06-30T03:22:53.546Z,95.50
2018-06-30T03:25:33.916Z,95.80
2018-06-30T03:28:13.973Z,96.00
2018-06-30T03:30:54.194Z,95.70
2018-06-30T03:36:14.476Z,94.90
2018-06-30T03:38:54.857Z,94.10
2018-06-30T03:41:35.359Z,94.90
2018-06-30T03:44:15.658Z,94.30
2018-06-30T03:46:55.836Z,94.00
2018-06-30T03:49:36.129Z,94.50
2018-06-30T03:54:56.604Z,94.80
2018-06-30T03:57:36.974Z,94.90
2018-06-30T04:00:17.339Z,95.30
2018-06-30T04:02:57.471Z,95.50
2018-06-30T04:05:37.782Z,95.20
2018-06-30T04:08:18.209Z,96.00
2018-06-30T04:10:58.730Z,95.70
2018-06-30T04:13:39.016Z,95.70
2018-06-30T04:16:19.271Z,96.10
2018-06-30T04:19:03.937Z,95.50
2018-06-30T04:21:46.377Z,94.90
2018-06-30T04:24:26.739Z,95.60
2018-06-30T04:27:07.032Z,95.60
2018-06-30T04:29:47.388Z,96.00
2018-06-30T04:32:27.728Z,95.60
2018-06-30T04:35:07.944Z,95.20
2018-06-30T04:37:48.181Z,95.00
2018-06-30T04:40:28.428Z,94.90
2018-06-30T04:43:08.698Z,95.00
2018-06-30T04:48:29.287Z,94.90
2018-06-30T04:51:09.448Z,95.00
2018-06-30T04:53:49.797Z,94.50
2018-06-30T04:56:30.245Z,94.80
2018-06-30T04:59:10.535Z,94.90
2018-06-30T05:04:30.819Z,94.80
2018-06-30T05:09:51.207Z,93.70
2018-06-30T05:12:31.571Z,93.00
2018-06-30T05:15:11.894Z,93.10
2018-06-30T05:17:51.886Z,93.10
2018-06-30T05:20:32.268Z,92.80
2018-06-30T05:23:12.652Z,92.80
2018-06-30T05:25:54.740Z,93.10
2018-06-30T05:28:35.080Z,93.10
2018-06-30T05:31:15.316Z,93.20
2018-06-30T05:33:55.582Z,92.90
2018-06-30T05:36:35.964Z,93.00
2018-06-30T05:39:16.271Z,92.70
2018-06-30T05:41:56.480Z,92.00
2018-06-30T05:44:36.811Z,92.70
2018-06-30T05:47:17.284Z,92.30
2018-06-30T05:49:57.563Z,92.30
2018-06-30T05:52:37.977Z,91.60
2018-06-30T05:57:58.523Z,90.90
2018-06-30T06:00:39.909Z,90.80
2018-06-30T06:03:19.911Z,90.70
2018-06-30T06:06:00.164Z,89.10
2018-06-30T06:08:40.600Z,82.40
2018-06-30T06:14:00.801Z,80.80
2018-06-30T06:16:41.056Z,77.90
2018-06-30T06:19:21.188Z,76.30
2018-06-30T06:22:01.573Z,73.50
2018-06-30T06:24:41.732Z,73.20
2018-06-30T06:27:21.885Z,68.90
2018-06-30T06:30:02.428Z,66.40
2018-06-30T06:32:42.810Z,64.40
2018-06-30T06:35:23.024Z,63.90
2018-06-30T06:40:43.555Z,64.30
2018-06-30T06:43:23.917Z,62.90
2018-06-30T06:46:04.072Z,60.70
2018-06-30T06:48:44.431Z,60.20
2018-06-30T06:51:24.516Z,58.20
2018-06-30T06:56:45.206Z,57.80
2018-06-30T06:59:25.683Z,58.50
2018-06-30T07:04:45.887Z,57.40
2018-06-30T07:07:26.308Z,57.40
2018-06-30T07:12:46.389Z,55.30
2018-06-30T07:15:26.644Z,56.40
2018-06-30T07:18:06.983Z,56.70
2018-06-30T07:20:47.363Z,56.60
2018-06-30T07:23:27.444Z,56.20
2018-06-30T07:26:08.083Z,55.60
2018-06-30T07:28:48.275Z,53.60
2018-06-30T07:31:28.555Z,53.20
2018-06-30T07:36:48.757Z,53.80
2018-06-30T07:39:29.186Z,52.80
2018-06-30T07:44:49.661Z,54.60
2018-06-30T07:47:30.065Z,55.50
2018-06-30T07:50:10.220Z,55.30
2018-06-30T07:52:50.587Z,55.10
2018-06-30T07:55:30.784Z,54.80
2018-06-30T07:58:10.940Z,55.10
2018-06-30T08:00:51.074Z,53.40
2018-06-30T08:03:31.607Z,51.90
2018-06-30T08:06:12.146Z,50.60
2018-06-30T08:08:52.661Z,50.00
2018-06-30T08:11:32.844Z,50.40
2018-06-30T08:14:13.097Z,50.50
2018-06-30T08:16:53.604Z,49.40
2018-06-30T08:19:34.568Z,49.90
2018-06-30T08:22:15.165Z,46.30
2018-06-30T08:24:56.165Z,46.70
2018-06-30T08:27:36.339Z,47.50
2018-06-30T08:30:16.635Z,47.10
2018-06-30T08:32:56.932Z,44.70
2018-06-30T08:38:17.411Z,40.30
2018-06-30T08:40:57.776Z,38.70
2018-06-30T08:43:38.209Z,38.50
2018-06-30T08:46:18.441Z,36.20
2018-06-30T08:48:59.888Z,37.20
2018-06-30T08:51:40.270Z,37.00
2018-06-30T08:54:20.833Z,33.20
2018-06-30T08:59:42.017Z,29.10
2018-06-30T09:02:22.453Z,27.70
2018-06-30T09:05:03.139Z,26.80
2018-06-30T09:07:43.282Z,25.60
2018-06-30T09:10:23.642Z,24.30
2018-06-30T09:13:04.510Z,26.60
2018-06-30T09:15:44.846Z,29.30
2018-06-30T09:18:25.102Z,29.20
2018-06-30T09:21:05.496Z,29.00
2018-06-30T09:23:45.683Z,29.60
2018-06-30T09:26:29.137Z,27.40
2018-06-30T09:29:09.685Z,25.00
2018-06-30T09:31:49.938Z,27.10
2018-06-30T09:34:30.172Z,24.90
2018-06-30T09:37:10.310Z,25.10
2018-06-30T09:39:50.471Z,24.90
2018-06-30T09:42:30.716Z,23.30
2018-06-30T09:45:11.100Z,22.60
2018-06-30T09:47:51.188Z,21.80
2018-06-30T09:50:31.496Z,20.90
2018-06-30T09:53:11.768Z,19.80
2018-06-30T09:55:52.101Z,20.50
2018-06-30T09:58:19.861Z,22.00
2018-06-30T10:00:54.966Z,21.80
2018-06-30T10:03:23.444Z,21.00
2018-06-30T10:05:51.212Z,19.50
2018-06-30T10:08:18.956Z,20.90
2018-06-30T10:13:26.731Z,21.70
2018-06-30T10:15:54.545Z,19.80
2018-06-30T10:18:22.355Z,21.10
2018-06-30T10:20:50.245Z,23.20
2018-06-30T10:23:18.086Z,21.80
2018-06-30T10:25:45.845Z,20.80
2018-06-30T10:28:13.576Z,19.60
2018-06-30T10:30:41.331Z,20.10
2018-06-30T10:33:09.879Z,19.50
2018-06-30T10:35:37.872Z,20.00
2018-06-30T10:38:05.681Z,19.50
2018-06-30T10:40:33.584Z,19.60
2018-06-30T10:43:01.313Z,19.50
2018-06-30T10:45:29.144Z,20.60
2018-06-30T10:47:56.881Z,22.20
2018-06-30T10:50:24.620Z,22.20
2018-06-30T10:52:52.417Z,22.20
2018-06-30T10:55:20.318Z,21.70
2018-06-30T11:00:15.697Z,17.90
2018-06-30T11:02:43.368Z,16.50
2018-06-30T11:05:11.913Z,16.60
2018-06-30T11:07:39.867Z,15.50
2018-06-30T11:10:08.039Z,14.90
2018-06-30T11:12:35.953Z,15.20
2018-06-30T11:17:31.423Z,13.90
2018-06-30T11:19:59.208Z,12.60
2018-06-30T11:22:26.934Z,12.40
2018-06-30T11:24:54.899Z,12.60
2018-06-30T11:27:22.940Z,12.80
2018-06-30T11:29:50.667Z,11.80
2018-06-30T11:32:18.435Z,14.40
2018-06-30T11:34:46.235Z,13.80
2018-06-30T11:39:41.784Z,14.20
2018-06-30T11:42:09.520Z,15.90
2018-06-30T11:44:37.616Z,17.10
2018-06-30T11:52:00.766Z,14.10
2018-06-30T11:54:28.635Z,13.60
2018-06-30T11:56:56.371Z,16.10
2018-06-30T11:59:24.172Z,19.30
2018-06-30T12:01:51.891Z,21.60
2018-06-30T12:04:19.661Z,20.20
2018-06-30T12:06:47.389Z,18.80
2018-06-30T12:09:15.128Z,18.20
2018-06-30T12:11:42.915Z,16.90
2018-06-30T12:16:39.205Z,17.50
2018-06-30T12:19:06.994Z,19.40
2018-06-30T12:21:34.823Z,18.70
2018-06-30T12:24:02.577Z,16.70
2018-06-30T12:26:30.327Z,16.40
2018-06-30T12:31:25.780Z,16.20
2018-06-30T12:33:53.552Z,17.80
2018-06-30T12:36:21.328Z,18.70
2018-06-30T12:38:49.256Z,18.40
2018-06-30T12:41:16.993Z,17.10
2018-06-30T12:46:12.807Z,16.10
2018-06-30T12:48:40.529Z,17.00
2018-06-30T12:51:08.295Z,19.30
2018-06-30T12:53:36.382Z,20.00
2018-06-30T12:56:05.052Z,21.00
2018-06-30T12:58:32.838Z,20.30
2018-06-30T13:01:00.613Z,19.40
2018-06-30T13:03:28.397Z,18.00
2018-06-30T13:05:56.194Z,17.10
2018-06-30T13:10:51.616Z,20.00
2018-06-30T13:15:47.075Z,18.70
2018-06-30T13:18:14.839Z,18.40
2018-06-30T13:20:42.624Z,19.50
2018-06-30T13:23:10.373Z,18.90
2018-06-30T13:25:38.158Z,18.40
2018-06-30T13:28:06.096Z,19.00
2018-06-30T13:30:33.839Z,19.90
2018-06-30T13:35:29.314Z,19.40
2018-06-30T13:37:57.122Z,19.10
2018-06-30T13:40:24.920Z,18.50
2018-06-30T13:42:52.716Z,18.90
2018-06-30T13:45:20.513Z,18.10
2018-06-30T13:50:15.956Z,18.90
2018-06-30T13:57:39.048Z,17.80
2018-06-30T14:00:07.327Z,17.90
2018-06-30T14:05:02.751Z,17.20
2018-06-30T14:07:30.599Z,16.60
2018-06-30T14:09:58.345Z,16.80
2018-06-30T14:12:26.149Z,16.60
2018-06-30T14:14:53.925Z,17.00
2018-06-30T14:17:21.731Z,17.40
2018-06-30T14:19:49.524Z,16.90
2018-06-30T14:22:17.279Z,17.70
2018-06-30T14:24:45.061Z,17.70
2018-06-30T14:29:40.531Z,19.80
2018-06-30T14:32:08.297Z,20.30
2018-06-30T14:34:40.723Z,21.40
2018-06-30T14:37:08.537Z,23.30
2018-06-30T14:39:36.312Z,20.90
2018-06-30T14:42:04.116Z,22.00
2018-06-30T14:44:32.129Z,22.80
2018-06-30T14:47:00.292Z,24.00
2018-06-30T14:49:28.168Z,23.60
2018-06-30T14:51:56.062Z,23.70
2018-06-30T14:54:23.880Z,23.80
2018-06-30T14:59:19.752Z,21.60
2018-06-30T15:01:48.021Z,20.90
2018-06-30T15:04:15.923Z,20.70
2018-06-30T15:06:43.780Z,20.80
2018-06-30T15:09:13.937Z,22.30
2018-06-30T15:11:42.864Z,23.20
2018-06-30T15:14:10.985Z,23.30
2018-06-30T15:16:38.972Z,24.60
2018-06-30T15:19:07.371Z,24.40
2018-06-30T15:21:35.151Z,25.20
2018-06-30T15:24:02.973Z,25.00
2018-06-30T15:26:30.883Z,23.80
2018-06-30T15:28:58.687Z,24.90
2018-06-30T15:31:26.588Z,23.70
2018-06-30T15:33:54.332Z,23.50
2018-06-30T15:36:22.110Z,24.90
2018-06-30T15:38:49.923Z,24.10
2018-06-30T15:41:17.644Z,24.30
2018-06-30T15:43:45.360Z,23.10
2018-06-30T15:46:13.099Z,22.80
2018-06-30T15:48:40.791Z,23.30
2018-06-30T15:51:08.513Z,22.30
2018-06-30T15:56:04.397Z,24.30
2018-06-30T15:58:32.112Z,24.40
2018-06-30T16:00:59.856Z,24.00
2018-06-30T16:03:27.632Z,23.70
2018-06-30T16:05:55.412Z,23.50
2018-06-30T16:10:50.840Z,22.50
2018-06-30T16:13:18.763Z,22.20
2018-06-30T16:15:46.573Z,22.50
2018-06-30T16:20:42.108Z,22.70
2018-06-30T16:23:09.950Z,22.50
2018-06-30T16:25:37.764Z,21.40
2018-06-30T16:28:06.126Z,21.60
2018-06-30T16:30:33.962Z,22.10
2018-06-30T16:33:01.748Z,22.10
2018-06-30T16:35:29.527Z,23.00
2018-06-30T16:37:57.296Z,21.40
2018-06-30T16:40:25.067Z,21.50
2018-06-30T16:42:52.773Z,21.30
2018-06-30T16:45:20.539Z,22.50
2018-06-30T16:47:48.930Z,21.80
2018-06-30T16:50:16.723Z,21.90
2018-06-30T16:52:44.468Z,22.00
2018-06-30T16:55:12.273Z,21.80
2018-06-30T16:57:40.033Z,22.40
2018-06-30T17:00:08.512Z,21.90
2018-06-30T17:02:36.328Z,22.10
2018-06-30T17:05:04.236Z,21.70
2018-06-30T17:07:31.969Z,22.40
2018-06-30T17:09:59.722Z,21.50
2018-06-30T17:12:27.452Z,21.70
2018-06-30T17:14:55.303Z,21.10
2018-06-30T17:17:23.010Z,20.90
2018-06-30T17:19:50.744Z,21.70
2018-06-30T17:22:18.504Z,21.00
2018-06-30T17:24:46.272Z,21.10
2018-06-30T17:27:14.040Z,20.70
2018-06-30T17:29:41.756Z,21.20
2018-06-30T17:32:09.523Z,20.30
2018-06-30T17:37:05.419Z,18.90
2018-06-30T17:39:33.341Z,18.40
2018-06-30T17:44:28.828Z,19.00
2018-06-30T17:46:56.672Z,19.20
2018-06-30T17:49:24.468Z,18.60
2018-06-30T17:54:20.414Z,18.10
2018-06-30T17:56:48.281Z,18.30
2018-06-30T17:59:16.149Z,18.20
2018-06-30T18:01:44.872Z,18.00
2018-06-30T18:04:12.644Z,17.90
2018-06-30T18:06:40.481Z,16.60
2018-06-30T18:09:09.858Z,16.50
2018-06-30T18:11:37.713Z,16.60
2018-06-30T18:14:05.761Z,16.40
2018-06-30T18:16:33.583Z,16.10
2018-06-30T18:19:01.362Z,16.20
2018-06-30T18:21:29.203Z,16.30
2018-06-30T18:26:24.792Z,16.10
2018-06-30T18:28:52.596Z,16.00
2018-06-30T18:31:20.396Z,16.30
2018-06-30T18:33:48.264Z,16.00
2018-06-30T18:36:16.113Z,16.20
2018-06-30T18:41:11.978Z,15.90
2018-06-30T18:43:39.737Z,15.80
2018-06-30T18:46:07.604Z,16.40
2018-06-30T18:48:35.412Z,16.00
2018-06-30T18:51:04.424Z,15.90
2018-06-30T18:55:59.973Z,15.70
2018-06-30T18:58:27.827Z,15.50
2018-06-30T19:00:55.587Z,15.50
2018-06-30T19:05:51.300Z,16.60
2018-06-30T19:08:19.184Z,17.40
2018-06-30T19:13:14.546Z,16.40
2018-06-30T19:15:42.342Z,16.40
2018-06-30T19:18:10.139Z,17.30
2018-06-30T19:20:37.938Z,16.70
2018-06-30T19:23:05.735Z,17.00
2018-06-30T19:25:33.541Z,17.40
2018-06-30T19:30:29.129Z,17.20
2018-06-30T19:32:57.066Z,17.10
2018-06-30T19:35:24.936Z,17.60
2018-06-30T19:37:52.712Z,17.40
2018-06-30T19:40:20.511Z,17.70
2018-06-30T19:42:48.304Z,17.60
2018-06-30T19:45:16.168Z,18.00
2018-06-30T19:47:43.906Z,18.10
2018-06-30T19:50:11.728Z,18.20
2018-06-30T19:52:39.578Z,18.50
2018-06-30T19:55:07.368Z,18.40
2018-06-30T19:57:35.208Z,18.30
2018-06-30T20:00:03.218Z,18.20
2018-06-30T20:02:31.024Z,17.70
2018-06-30T20:04:58.775Z,17.90
2018-06-30T20:07:26.629Z,17.50
2018-06-30T20:09:54.409Z,17.80
2018-06-30T20:12:22.238Z,18.50
2018-06-30T20:14:50.095Z,18.10
2018-06-30T20:17:17.940Z,18.10
2018-06-30T20:22:13.443Z,18.90
2018-06-30T20:24:41.315Z,18.30
2018-06-30T20:27:09.118Z,18.50
2018-06-30T20:29:36.912Z,18.40
2018-06-30T20:32:04.741Z,18.60
2018-06-30T20:34:32.540Z,18.80
2018-06-30T20:37:00.396Z,18.50
2018-06-30T20:39:28.192Z,19.60
2018-06-30T20:41:56.034Z,19.20
2018-06-30T20:44:23.798Z,19.10
2018-06-30T20:46:51.610Z,19.20
2018-06-30T20:49:19.443Z,18.60
2018-06-30T20:51:47.250Z,19.10
2018-06-30T20:54:15.042Z,18.90
2018-06-30T20:56:42.878Z,19.20
2018-06-30T20:59:10.693Z,19.20
2018-06-30T21:01:38.556Z,19.20
2018-06-30T21:04:06.303Z,19.20
2018-06-30T21:06:34.107Z,20.10
2018-06-30T21:09:01.964Z,19.40
2018-06-30T21:11:29.778Z,19.10
2018-06-30T21:13:57.575Z,19.60
2018-06-30T21:16:25.348Z,19.50
2018-06-30T21:18:53.321Z,20.20
2018-06-30T21:21:21.148Z,19.70
2018-06-30T21:23:49.113Z,20.20
2018-06-30T21:26:16.904Z,20.00
2018-06-30T21:28:44.721Z,20.60
2018-06-30T21:31:12.512Z,20.10
2018-06-30T21:33:40.275Z,20.70
2018-06-30T21:36:08.061Z,21.20
2018-06-30T21:38:35.831Z,21.00
2018-06-30T21:41:03.645Z,21.50
2018-06-30T21:43:31.429Z,20.80
2018-06-30T21:48:27.012Z,22.10
2018-06-30T21:50:54.780Z,21.10
2018-06-30T21:53:22.593Z,21.40
2018-06-30T21:55:50.383Z,20.70
2018-06-30T21:58:18.140Z,21.50
2018-06-30T22:00:51.528Z,21.80
2018-06-30T22:05:49.789Z,21.50
2018-06-30T22:08:17.608Z,21.60
2018-06-30T22:10:45.551Z,21.40
2018-06-30T22:13:13.372Z,21.70
2018-06-30T22:15:41.204Z,22.60
2018-06-30T22:18:08.984Z,21.70
2018-06-30T22:20:36.757Z,22.30
2018-06-30T22:23:04.710Z,22.30
2018-06-30T22:25:32.867Z,21.70
2018-06-30T22:28:00.966Z,21.60
2018-06-30T22:30:28.800Z,22.00
2018-06-30T22:35:24.267Z,22.50
2018-06-30T22:37:52.013Z,22.80
2018-06-30T22:40:19.781Z,22.40
2018-06-30T22:42:47.752Z,22.50
2018-06-30T22:45:16.044Z,22.40
2018-06-30T22:47:44.195Z,22.70
2018-06-30T22:50:12.383Z,23.30
2018-06-30T22:52:40.140Z,23.00
2018-06-30T22:55:07.967Z,23.10
2018-06-30T22:57:36.096Z,22.70
2018-06-30T23:00:06.232Z,23.10
2018-06-30T23:02:34.061Z,22.80
2018-06-30T23:05:01.832Z,22.80
2018-06-30T23:07:29.669Z,22.70
2018-06-30T23:12:25.055Z,23.50
2018-06-30T23:14:52.851Z,23.10
2018-06-30T23:17:20.644Z,23.30
2018-06-30T23:22:56.651Z,23.90
2018-06-30T23:25:26.133Z,23.60
2018-06-30T23:27:54.559Z,23.20
2018-06-30T23:30:22.911Z,23.60
2018-06-30T23:32:50.963Z,23.70
2018-06-30T23:35:18.976Z,23.90
2018-06-30T23:37:46.964Z,24.10
2018-06-30T23:42:42.661Z,25.20
2018-06-30T23:45:10.530Z,23.50
2018-06-30T23:47:38.340Z,24.20
2018-06-30T23:52:34.311Z,24.00
2018-06-30T23:55:02.204Z,24.40
2018-06-30T23:57:29.971Z,24.50
2018-06-30T23:59:57.710Z,24.70
